createdAt,value
2017-05-15T00:02:22.050Z,86.50
2017-05-15T00:04:49.693Z,86.40
2017-05-15T00:07:16.615Z,86.50
2017-05-15T00:09:43.542Z,86.50
2017-05-15T00:12:10.442Z,86.60
2017-05-15T00:14:38.090Z,86.60
2017-05-15T00:17:05.765Z,86.70
2017-05-15T00:19:33.422Z,86.50
2017-05-15T00:22:01.071Z,86.60
2017-05-15T00:24:28.298Z,86.60
2017-05-15T00:26:55.300Z,86.70
2017-05-15T00:29:22.205Z,86.80
2017-05-15T00:31:49.125Z,86.60
2017-05-15T00:34:16.029Z,86.70
2017-05-15T00:36:42.957Z,86.70
2017-05-15T00:39:10.633Z,86.70
2017-05-15T00:41:37.558Z,86.70
2017-05-15T00:44:05.209Z,86.80
2017-05-15T00:46:32.131Z,86.80
2017-05-15T00:48:59.050Z,86.80
2017-05-15T00:51:25.945Z,86.90
2017-05-15T00:53:53.605Z,86.90
2017-05-15T00:56:21.270Z,87.00
2017-05-15T00:58:48.943Z,87.00
2017-05-15T01:01:16.131Z,87.10
2017-05-15T01:03:43.026Z,87.10
2017-05-15T01:06:10.675Z,87.10
2017-05-15T01:08:37.902Z,87.00
2017-05-15T01:11:04.902Z,87.20
2017-05-15T01:13:31.815Z,87.20
2017-05-15T01:15:58.771Z,87.10
2017-05-15T01:18:26.434Z,87.10
2017-05-15T01:20:54.093Z,87.10
2017-05-15T01:23:21.725Z,87.20
2017-05-15T01:25:48.647Z,87.20
2017-05-15T01:28:15.549Z,87.10
2017-05-15T01:30:42.470Z,88.10
2017-05-15T01:33:09.386Z,87.40
2017-05-15T01:35:36.333Z,87.40
2017-05-15T01:38:03.257Z,87.50
2017-05-15T01:40:30.629Z,87.50
2017-05-15T01:42:57.581Z,87.50
2017-05-15T01:45:24.550Z,87.40
2017-05-15T01:47:51.773Z,87.40
2017-05-15T01:50:18.725Z,87.50
2017-05-15T01:52:45.726Z,89.50
2017-05-15T01:55:13.426Z,90.20
2017-05-15T01:57:40.371Z,90.20
2017-05-15T02:00:07.307Z,90.30
2017-05-15T02:02:34.238Z,90.30
2017-05-15T02:05:01.196Z,90.30
2017-05-15T02:07:28.150Z,90.20
2017-05-15T02:09:55.110Z,90.20
2017-05-15T02:12:22.065Z,90.20
2017-05-15T02:14:49.753Z,90.20
2017-05-15T02:17:16.970Z,90.10
2017-05-15T02:19:43.923Z,90.20
2017-05-15T02:22:11.613Z,90.20
2017-05-15T02:24:38.566Z,90.20
2017-05-15T02:27:05.541Z,90.20
2017-05-15T02:29:32.491Z,90.00
2017-05-15T02:31:59.449Z,90.10
2017-05-15T02:34:26.406Z,90.00
2017-05-15T02:36:53.374Z,89.70
2017-05-15T02:39:20.330Z,89.70
2017-05-15T02:41:47.275Z,89.90
2017-05-15T02:44:14.209Z,90.30
2017-05-15T02:46:41.406Z,89.60
2017-05-15T02:49:08.388Z,89.60
2017-05-15T02:51:36.085Z,89.40
2017-05-15T02:54:03.029Z,88.50
2017-05-15T02:56:29.995Z,88.70
2017-05-15T02:58:56.936Z,88.50
2017-05-15T03:01:23.879Z,88.80
2017-05-15T03:03:50.826Z,88.80
2017-05-15T03:06:17.794Z,89.00
2017-05-15T03:08:44.759Z,89.10
2017-05-15T03:11:12.415Z,89.10
2017-05-15T03:13:40.150Z,89.10
2017-05-15T03:16:07.102Z,89.10
2017-05-15T03:18:34.051Z,89.00
2017-05-15T03:21:00.989Z,88.70
2017-05-15T03:23:27.942Z,88.80
2017-05-15T03:25:54.878Z,88.80
2017-05-15T03:28:21.806Z,88.70
2017-05-15T03:30:48.774Z,88.80
2017-05-15T03:33:15.737Z,88.90
2017-05-15T03:35:42.693Z,88.80
2017-05-15T03:38:09.649Z,88.80
2017-05-15T03:40:36.570Z,88.70
2017-05-15T03:43:04.277Z,88.80
2017-05-15T03:45:31.622Z,88.70
2017-05-15T03:47:58.559Z,88.60
2017-05-15T03:50:25.529Z,88.60
2017-05-15T03:52:52.788Z,88.50
2017-05-15T03:55:19.769Z,88.60
2017-05-15T03:57:47.453Z,88.20
2017-05-15T04:00:14.455Z,87.90
2017-05-15T04:02:41.403Z,87.90
2017-05-15T04:05:08.341Z,87.90
2017-05-15T04:07:35.326Z,88.10
2017-05-15T04:10:02.322Z,87.50
2017-05-15T04:12:29.265Z,87.50
2017-05-15T04:14:56.339Z,86.80
2017-05-15T04:17:24.011Z,87.10
2017-05-15T04:19:51.713Z,87.90
2017-05-15T04:22:18.669Z,88.90
2017-05-15T04:24:45.618Z,87.60
2017-05-15T04:27:12.598Z,83.50
2017-05-15T04:29:40.300Z,79.10
2017-05-15T04:32:07.274Z,75.10
2017-05-15T04:34:34.217Z,69.80
2017-05-15T04:37:01.183Z,65.30
2017-05-15T04:39:28.116Z,61.20
2017-05-15T04:41:55.267Z,64.70
2017-05-15T04:44:22.266Z,65.10
2017-05-15T04:46:49.262Z,64.70
2017-05-15T04:49:16.247Z,64.10
2017-05-15T04:51:43.589Z,62.90
2017-05-15T04:54:10.580Z,61.30
2017-05-15T04:56:37.618Z,59.70
2017-05-15T04:59:04.727Z,58.60
2017-05-15T05:01:31.763Z,48.70
2017-05-15T05:03:58.961Z,46.30
2017-05-15T05:06:26.370Z,44.60
2017-05-15T05:08:54.385Z,43.00
2017-05-15T05:11:21.530Z,41.50
2017-05-15T05:13:48.823Z,40.00
2017-05-15T05:16:16.202Z,39.50
2017-05-15T05:18:43.532Z,39.10
2017-05-15T05:21:20.803Z,38.40
2017-05-15T05:24:19.030Z,37.20
2017-05-15T05:27:38.556Z,37.00
2017-05-15T05:30:22.683Z,36.20
2017-05-15T05:32:58.930Z,34.90
2017-05-15T05:36:00.534Z,34.60
2017-05-15T05:39:10.119Z,33.20
2017-05-15T05:55:15.728Z,29.20
2017-05-15T05:57:42.990Z,29.00
2017-05-15T06:00:23.189Z,30.40
2017-05-15T06:03:14.379Z,31.60
2017-05-15T06:05:53.693Z,34.20
2017-05-15T06:08:33.173Z,36.70
2017-05-15T06:11:12.549Z,38.40
2017-05-15T06:13:51.965Z,37.70
2017-05-15T06:19:14.228Z,36.30
2017-05-15T06:36:12.882Z,44.40
2017-05-15T06:38:52.134Z,45.50
2017-05-15T06:41:31.254Z,45.40
2017-05-15T06:43:58.115Z,48.70
2017-05-15T06:46:25.057Z,49.60
2017-05-15T06:48:51.997Z,45.30
2017-05-15T06:51:18.965Z,43.20
2017-05-15T06:53:46.676Z,41.50
2017-05-15T06:56:14.096Z,41.20
2017-05-15T06:58:41.048Z,41.70
2017-05-15T07:01:09.340Z,43.40
2017-05-15T07:03:36.602Z,43.70
2017-05-15T07:06:03.665Z,43.30
2017-05-15T07:08:31.116Z,42.40
2017-05-15T07:10:58.463Z,41.30
2017-05-15T07:13:29.133Z,38.90
2017-05-15T07:15:56.432Z,36.90
2017-05-15T07:18:28.040Z,36.40
2017-05-15T07:20:55.718Z,37.50
2017-05-15T07:23:30.623Z,39.70
2017-05-15T07:25:58.129Z,41.20
2017-05-15T07:28:30.059Z,38.40
2017-05-15T07:30:59.304Z,34.80
2017-05-15T07:33:26.603Z,33.80
2017-05-15T07:36:03.896Z,34.90
2017-05-15T07:38:34.379Z,35.80
2017-05-15T07:41:02.462Z,37.30
2017-05-15T07:43:29.810Z,39.20
2017-05-15T07:45:59.133Z,39.90
2017-05-15T07:48:31.174Z,41.20
2017-05-15T07:50:59.021Z,42.10
2017-05-15T07:53:26.967Z,43.00
2017-05-15T07:55:54.839Z,43.40
2017-05-15T07:58:22.355Z,43.60
2017-05-15T08:00:49.646Z,43.30
2017-05-15T08:03:16.948Z,43.40
2017-05-15T08:05:44.246Z,44.10
2017-05-15T08:08:11.541Z,45.50
2017-05-15T08:10:38.793Z,46.80
2017-05-15T08:13:06.015Z,47.70
2017-05-15T08:15:33.045Z,47.40
2017-05-15T08:18:00.045Z,48.30
2017-05-15T08:20:27.019Z,49.00
2017-05-15T08:22:54.012Z,50.10
2017-05-15T08:25:21.004Z,49.60
2017-05-15T08:27:48.731Z,50.10
2017-05-15T08:30:15.795Z,50.10
2017-05-15T08:32:43.080Z,51.10
2017-05-15T08:35:10.773Z,50.70
2017-05-15T08:37:37.752Z,51.10
2017-05-15T08:40:04.759Z,50.90
2017-05-15T08:42:31.794Z,49.80
2017-05-15T08:44:58.811Z,49.40
2017-05-15T08:47:25.774Z,49.60
2017-05-15T08:49:52.698Z,50.20
2017-05-15T08:52:20.410Z,50.00
2017-05-15T08:54:48.065Z,48.70
2017-05-15T08:57:15.177Z,47.40
2017-05-15T08:59:42.901Z,46.80
2017-05-15T09:02:10.520Z,47.00
2017-05-15T09:04:38.366Z,45.90
2017-05-15T09:07:05.554Z,46.60
2017-05-15T09:09:33.510Z,46.40
2017-05-15T09:12:00.593Z,46.90
2017-05-15T09:14:28.733Z,47.10
2017-05-15T09:16:56.724Z,46.70
2017-05-15T09:19:24.779Z,46.40
2017-05-15T09:21:51.983Z,46.10
2017-05-15T09:24:19.484Z,46.50
2017-05-15T09:26:46.705Z,46.00
2017-05-15T09:29:13.787Z,45.60
2017-05-15T09:31:41.366Z,45.90
2017-05-15T09:34:08.520Z,45.90
2017-05-15T09:36:35.755Z,45.70
2017-05-15T09:39:02.920Z,45.80
2017-05-15T09:41:31.290Z,45.50
2017-05-15T09:44:00.767Z,46.20
2017-05-15T09:46:34.236Z,46.40
2017-05-15T09:49:01.627Z,46.10
2017-05-15T09:51:29.062Z,46.20
2017-05-15T09:54:01.534Z,46.30
2017-05-15T09:56:28.791Z,47.20
2017-05-15T09:59:07.583Z,48.30
2017-05-15T10:01:35.316Z,48.60
2017-05-15T10:06:35.419Z,49.30
2017-05-15T10:09:03.617Z,49.10
2017-05-15T10:11:30.810Z,48.70
2017-05-15T10:13:58.857Z,48.30
2017-05-15T10:16:28.520Z,49.90
2017-05-15T10:18:56.760Z,49.70
2017-05-15T10:21:24.138Z,50.20
2017-05-15T10:23:51.325Z,50.80
2017-05-15T10:26:18.915Z,50.20
2017-05-15T10:28:46.689Z,49.80
2017-05-15T10:31:14.502Z,50.00
2017-05-15T10:33:42.291Z,49.10
2017-05-15T10:36:10.923Z,48.50
2017-05-15T10:38:38.140Z,49.30
2017-05-15T10:41:05.937Z,49.00
2017-05-15T10:43:33.015Z,48.40
2017-05-15T10:46:01.349Z,48.90
2017-05-15T10:48:29.240Z,50.60
2017-05-15T10:50:56.396Z,50.40
2017-05-15T10:53:23.555Z,49.80
2017-05-15T10:55:50.588Z,49.80
2017-05-15T10:58:17.618Z,49.80
2017-05-15T11:00:44.626Z,50.10
2017-05-15T11:03:11.637Z,50.20
2017-05-15T11:05:38.653Z,49.80
2017-05-15T11:08:05.689Z,49.50
2017-05-15T11:10:33.498Z,48.90
2017-05-15T11:13:00.638Z,49.30
2017-05-15T11:15:28.553Z,49.60
2017-05-15T11:17:55.680Z,47.50
2017-05-15T11:20:22.824Z,47.60
2017-05-15T11:22:50.871Z,47.80
2017-05-15T14:12:57.756Z,44.20
2017-05-15T14:18:22.319Z,46.50
2017-05-15T14:20:50.319Z,47.70
2017-05-15T14:23:18.075Z,48.40
2017-05-15T14:25:45.680Z,49.50
2017-05-15T14:28:14.123Z,50.50
2017-05-15T14:30:42.567Z,51.10
2017-05-15T14:33:10.242Z,52.80
2017-05-15T14:35:37.526Z,53.70
2017-05-15T14:38:05.771Z,54.90
2017-05-15T14:40:33.100Z,55.50
2017-05-15T14:43:00.400Z,54.30
2017-05-15T14:45:28.885Z,53.50
2017-05-15T14:47:56.955Z,53.20
2017-05-15T14:50:25.176Z,53.10
2017-05-15T14:52:52.543Z,53.20
2017-05-15T14:55:19.886Z,53.60
2017-05-15T14:57:47.601Z,52.30
2017-05-15T15:00:16.214Z,52.30
2017-05-15T15:02:43.107Z,52.30
2017-05-15T15:05:11.254Z,52.70
2017-05-15T15:07:38.705Z,52.80
2017-05-15T15:10:06.206Z,53.30
2017-05-15T15:12:34.304Z,53.40
2017-05-15T15:15:02.182Z,52.90
2017-05-15T15:17:31.266Z,52.70
2017-05-15T15:19:59.387Z,52.50
2017-05-15T15:22:29.361Z,52.40
2017-05-15T15:24:57.600Z,52.10
2017-05-15T15:27:27.149Z,51.00
2017-05-15T15:29:55.658Z,50.90
2017-05-15T15:32:24.246Z,49.70
2017-05-15T15:34:52.392Z,48.80
2017-05-15T15:37:21.876Z,48.80
2017-05-15T15:42:40.053Z,47.80
2017-05-15T15:45:16.266Z,45.40
2017-05-15T15:47:56.603Z,45.50
2017-05-15T15:50:34.437Z,44.90
2017-05-15T15:55:59.177Z,45.20
2017-05-15T15:58:27.902Z,45.70
2017-05-15T16:00:57.929Z,45.70
2017-05-15T16:05:58.456Z,46.00
2017-05-15T16:08:27.411Z,46.10
2017-05-15T16:10:56.248Z,45.10
2017-05-15T16:13:25.643Z,44.80
2017-05-15T16:15:54.203Z,44.60
2017-05-15T16:18:23.003Z,45.30
2017-05-15T16:20:51.248Z,46.30
2017-05-15T16:23:19.416Z,47.10
2017-05-15T16:25:50.495Z,46.70
2017-05-15T16:28:20.074Z,46.50
2017-05-15T16:30:48.975Z,46.30
2017-05-15T16:33:17.465Z,46.90
2017-05-15T16:35:45.690Z,46.90
2017-05-15T16:38:13.006Z,47.00
2017-05-15T16:40:40.312Z,46.90
2017-05-15T16:43:08.685Z,46.90
2017-05-15T16:45:36.817Z,46.90
2017-05-15T16:48:04.669Z,47.00
2017-05-15T16:50:33.543Z,47.20
2017-05-15T16:53:02.262Z,47.50
2017-05-15T16:55:29.461Z,48.20
2017-05-15T16:57:56.553Z,48.10
2017-05-15T17:00:23.599Z,48.30
2017-05-15T17:02:50.886Z,48.70
2017-05-15T17:05:17.891Z,49.10
2017-05-15T17:07:44.880Z,49.70
2017-05-15T17:10:12.645Z,50.30
2017-05-15T17:12:40.389Z,50.30
2017-05-15T17:15:07.370Z,50.10
2017-05-15T17:17:36.375Z,50.50
2017-05-15T17:20:03.538Z,50.80
2017-05-15T17:22:30.612Z,50.90
2017-05-15T17:24:58.531Z,51.70
2017-05-15T17:27:25.867Z,52.10
2017-05-15T17:29:53.096Z,52.80
2017-05-15T17:32:20.904Z,53.00
2017-05-15T17:34:47.921Z,52.90
2017-05-15T17:37:14.899Z,53.20
2017-05-15T17:39:42.682Z,53.90
2017-05-15T17:42:11.485Z,54.40
2017-05-15T17:44:39.397Z,55.20
2017-05-15T17:47:07.325Z,55.60
2017-05-15T17:49:37.420Z,55.90
2017-05-15T17:52:05.378Z,56.00
2017-05-15T17:54:32.440Z,56.10
2017-05-15T17:57:00.047Z,56.20
2017-05-15T17:59:27.229Z,56.80
2017-05-15T18:01:54.805Z,57.20
2017-05-15T18:04:21.887Z,57.80
2017-05-15T18:06:48.930Z,58.10
2017-05-15T18:09:17.952Z,58.80
2017-05-15T18:11:45.036Z,59.40
2017-05-15T18:14:12.523Z,59.70
2017-05-15T18:16:40.918Z,60.10
2017-05-15T18:19:09.162Z,61.40
2017-05-15T18:21:36.268Z,61.80
2017-05-15T18:24:03.621Z,62.20
2017-05-15T18:26:31.171Z,62.30
2017-05-15T18:28:58.159Z,62.50
2017-05-15T18:31:25.184Z,63.00
2017-05-15T18:33:52.378Z,63.50
2017-05-15T18:36:19.526Z,63.70
2017-05-15T18:38:46.618Z,63.70
2017-05-15T18:41:13.678Z,63.70
2017-05-15T18:43:40.679Z,64.40
2017-05-15T18:46:08.095Z,65.00
2017-05-15T18:48:35.301Z,65.20
2017-05-15T18:51:03.357Z,65.40
2017-05-15T18:53:31.237Z,66.40
2017-05-15T18:55:58.553Z,65.70
2017-05-15T18:58:25.920Z,65.50
2017-05-15T19:00:53.703Z,66.00
2017-05-15T19:03:21.047Z,65.20
2017-05-15T19:05:49.553Z,65.50
2017-05-15T19:08:17.271Z,66.10
2017-05-15T19:10:50.347Z,66.50
2017-05-15T19:13:18.614Z,66.90
2017-05-15T19:15:45.931Z,68.20
2017-05-15T19:18:13.240Z,67.80
2017-05-15T19:20:40.548Z,67.70
2017-05-15T19:23:07.702Z,68.10
2017-05-15T19:25:34.949Z,68.60
2017-05-15T19:28:02.083Z,68.80
2017-05-15T19:30:29.865Z,69.40
2017-05-15T19:32:56.829Z,69.70
2017-05-15T19:35:24.493Z,70.10
2017-05-15T19:37:51.719Z,70.60
2017-05-15T19:40:19.754Z,71.20
2017-05-15T19:42:47.643Z,70.80
2017-05-15T19:45:15.576Z,71.20
2017-05-15T19:47:43.225Z,71.00
2017-05-15T19:50:11.015Z,70.80
2017-05-15T19:52:38.072Z,70.50
2017-05-15T19:55:05.182Z,70.60
2017-05-15T19:57:32.201Z,70.90
2017-05-15T19:59:59.258Z,71.10
2017-05-15T20:02:26.252Z,71.40
2017-05-15T20:04:54.070Z,71.90
2017-05-15T20:07:21.427Z,72.30
2017-05-15T20:09:48.507Z,73.40
2017-05-15T20:12:16.832Z,72.50
2017-05-15T20:14:44.088Z,72.50
2017-05-15T20:17:11.146Z,72.10
2017-05-15T20:19:38.932Z,72.20
2017-05-15T20:22:06.641Z,72.40
2017-05-15T20:24:33.684Z,72.60
2017-05-15T20:27:01.604Z,72.50
2017-05-15T20:29:28.941Z,72.40
2017-05-15T20:31:57.466Z,72.40
2017-05-15T20:34:24.483Z,72.60
2017-05-15T20:36:51.639Z,72.80
2017-05-15T20:39:18.666Z,72.50
2017-05-15T20:41:46.438Z,72.20
2017-05-15T20:44:14.162Z,72.90
2017-05-15T20:46:41.134Z,71.80
2017-05-15T20:49:08.090Z,71.60
2017-05-15T20:51:35.255Z,71.60
2017-05-15T20:54:02.304Z,72.00
2017-05-15T20:56:29.405Z,72.40
2017-05-15T20:58:56.407Z,72.40
2017-05-15T21:01:23.724Z,72.40
2017-05-15T21:03:50.813Z,72.30
2017-05-15T21:06:18.110Z,72.60
2017-05-15T21:08:45.102Z,72.20
2017-05-15T21:11:12.137Z,71.90
2017-05-15T21:13:39.179Z,71.60
2017-05-15T21:16:06.171Z,71.60
2017-05-15T21:18:33.261Z,71.40
2017-05-15T21:21:00.849Z,71.20
2017-05-15T21:23:28.813Z,71.60
2017-05-15T21:25:55.768Z,71.40
2017-05-15T21:28:23.474Z,71.40
2017-05-15T21:30:50.594Z,71.70
2017-05-15T21:33:18.325Z,71.60
2017-05-15T21:35:45.859Z,71.80
2017-05-15T21:38:14.322Z,72.10
2017-05-15T21:40:41.680Z,72.60
2017-05-15T21:43:09.020Z,72.90
2017-05-15T21:45:36.098Z,72.90
2017-05-15T21:48:03.171Z,73.30
2017-05-15T21:50:30.544Z,73.30
2017-05-15T21:52:57.660Z,73.50
2017-05-15T21:55:24.781Z,73.60
2017-05-15T21:57:52.146Z,73.60
2017-05-15T22:00:19.230Z,73.90
2017-05-15T22:02:46.333Z,74.00
2017-05-15T22:05:13.429Z,74.20
2017-05-15T22:07:41.051Z,74.50
2017-05-15T22:10:08.124Z,74.80
2017-05-15T22:12:35.149Z,75.10
2017-05-15T22:15:03.012Z,75.40
2017-05-15T22:17:30.059Z,75.50
2017-05-15T22:19:57.129Z,75.60
2017-05-15T22:22:24.672Z,75.90
2017-05-15T22:24:51.752Z,75.80
2017-05-15T22:27:19.128Z,76.10
2017-05-15T22:29:46.159Z,76.50
2017-05-15T22:32:14.005Z,77.80
2017-05-15T22:34:41.487Z,78.00
2017-05-15T22:37:09.292Z,78.40
2017-05-15T22:39:36.401Z,78.60
2017-05-15T22:42:04.305Z,78.80
2017-05-15T22:44:31.320Z,78.70
2017-05-15T22:46:58.364Z,78.90
2017-05-15T22:49:26.832Z,79.10
2017-05-15T22:51:54.799Z,79.20
2017-05-15T22:54:22.558Z,79.20
2017-05-15T22:56:50.375Z,79.20
2017-05-15T22:59:17.383Z,79.40
2017-05-15T23:01:45.135Z,79.70
2017-05-15T23:04:14.172Z,79.80
2017-05-15T23:06:41.281Z,79.90
2017-05-15T23:09:09.227Z,79.90
2017-05-15T23:11:36.242Z,79.70
2017-05-15T23:14:03.335Z,80.20
2017-05-15T23:16:30.347Z,80.40
2017-05-15T23:18:57.403Z,80.40
2017-05-15T23:21:24.547Z,80.30
2017-05-15T23:23:51.672Z,80.40
2017-05-15T23:26:18.649Z,80.40
2017-05-15T23:28:45.649Z,80.30
2017-05-15T23:31:12.667Z,80.90
2017-05-15T23:33:40.117Z,80.10
2017-05-15T23:36:07.204Z,80.10
2017-05-15T23:38:34.201Z,80.30
2017-05-15T23:41:01.220Z,80.40
2017-05-15T23:43:28.214Z,80.30
2017-05-15T23:45:55.911Z,80.60
2017-05-15T23:48:22.922Z,80.70
2017-05-15T23:50:50.677Z,80.70
2017-05-15T23:53:18.413Z,81.50
2017-05-15T23:55:45.793Z,80.90
2017-05-15T23:58:12.878Z,81.10
